Time;durP1;ratioP1;P1;durP2;ratioP2;P2;SDS_P1;SDS_P2;PMS_P1;PMS_P2;Temp;Humidity;BMP_temperature;BMP_pressure;BME280_temperature;BME280_humidity;BME280_pressure;Samples;Min_cycle;Max_cycle;Signal;HPM_P1;HPM_P2
2021/06/04 00:00:40;;;;;;;;;;;19.50;99.90;;;;;;5048166;28;19905;-86
2021/06/04 00:03:10;;;;;;;;;;;19.40;99.90;;;;;;5037344;28;19913;-85
2021/06/04 00:05:37;;;;;;;;;;;19.40;99.90;;;;;;5031951;28;19955;-85
2021/06/04 00:08:04;;;;;;;;;;;19.30;99.90;;;;;;5031625;28;19909;-86
2021/06/04 00:10:33;;;;;;;;;;;19.30;99.90;;;;;;5037994;28;19905;-86
2021/06/04 00:13:16;;;;;;;;;;;19.30;99.90;;;;;;5034484;28;19909;-86
2021/06/04 00:15:42;;;;;;;;;;;19.30;99.90;;;;;;5047868;28;19905;-86
2021/06/04 00:18:08;;;;;;;;;;;19.20;99.90;;;;;;5039395;28;20339;-86
2021/06/04 00:20:33;;;;;;;;;;;19.10;99.90;;;;;;5032275;28;19909;-86
2021/06/04 00:22:59;;;;;;;;;;;19.10;99.90;;;;;;5036086;28;19905;-86
2021/06/04 00:25:24;;;;;;;;;;;19.00;99.90;;;;;;5035797;28;19936;-86
2021/06/04 00:27:50;;;;;;;;;;;19.00;99.90;;;;;;5049566;28;20319;-85
2021/06/04 00:30:16;;;;;;;;;;;19.10;99.90;;;;;;5038026;28;19905;-86
2021/06/04 00:32:42;;;;;;;;;;;19.00;99.90;;;;;;5037441;28;20451;-86
2021/06/04 00:35:08;;;;;;;;;;;19.00;99.90;;;;;;5036258;28;20498;-86
2021/06/04 00:37:34;;;;;;;;;;;19.00;99.90;;;;;;5040840;28;19908;-85
2021/06/04 00:39:59;;;;;;;;;;;19.00;99.90;;;;;;5038217;28;19928;-86
2021/06/04 00:42:26;;;;;;;;;;;19.00;99.90;;;;;;5052961;28;19913;-86
2021/06/04 00:44:53;;;;;;;;;;;19.00;99.90;;;;;;5038730;28;19932;-86
2021/06/04 00:47:19;;;;;;;;;;;19.00;99.90;;;;;;5039564;28;19909;-86
2021/06/04 00:49:45;;;;;;;;;;;19.00;99.90;;;;;;5038556;28;19912;-86
2021/06/04 00:52:15;;;;;;;;;;;19.00;99.90;;;;;;5036181;28;19905;-86
2021/06/04 00:54:42;;;;;;;;;;;18.90;99.90;;;;;;5039562;28;19955;-86
2021/06/04 00:57:08;;;;;;;;;;;19.00;99.90;;;;;;5037800;28;19912;-85
2021/06/04 00:59:37;;;;;;;;;;;19.00;99.90;;;;;;5038992;28;19908;-86
2021/06/04 01:02:04;;;;;;;;;;;19.00;99.90;;;;;;5037105;28;19959;-86
2021/06/04 01:04:30;;;;;;;;;;;18.90;99.90;;;;;;5037268;28;19955;-85
2021/06/04 01:06:58;;;;;;;;;;;18.90;99.90;;;;;;5035828;28;19913;-86
2021/06/04 01:09:38;;;;;;;;;;;18.80;99.90;;;;;;5035962;28;19909;-85
2021/06/04 01:12:22;;;;;;;;;;;18.80;99.90;;;;;;5040768;28;19992;-85
2021/06/04 01:14:53;;;;;;;;;;;18.80;99.90;;;;;;5040691;28;19912;-85
2021/06/04 01:17:19;;;;;;;;;;;18.80;99.90;;;;;;5037086;28;19911;-85
2021/06/04 01:19:47;;;;;;;;;;;18.80;99.90;;;;;;5040284;28;19996;-85
2021/06/04 01:22:18;;;;;;;;;;;18.70;99.90;;;;;;5038997;28;19905;-85
2021/06/04 01:24:52;;;;;;;;;;;18.70;99.90;;;;;;5035787;28;19967;-86
2021/06/04 01:27:22;;;;;;;;;;;18.60;99.90;;;;;;5036639;28;19909;-86
2021/06/04 01:29:53;;;;;;;;;;;18.60;99.90;;;;;;5036086;28;19941;-85
2021/06/04 01:32:24;;;;;;;;;;;18.50;99.90;;;;;;5036354;28;19905;-85
2021/06/04 01:34:57;;;;;;;;;;;18.50;99.90;;;;;;5035235;28;19917;-85
2021/06/04 01:37:31;;;;;;;;;;;18.60;99.90;;;;;;5037492;28;19905;-86
2021/06/04 01:39:59;;;;;;;;;;;18.60;99.90;;;;;;5048623;28;20343;-86
2021/06/04 01:42:27;;;;;;;;;;;18.60;99.90;;;;;;5036874;28;19905;-86
2021/06/04 01:44:55;;;;;;;;;;;18.60;99.90;;;;;;5035117;28;19958;-86
2021/06/04 01:47:23;;;;;;;;;;;18.60;99.90;;;;;;5034495;28;19909;-85
2021/06/04 01:49:50;;;;;;;;;;;18.60;99.90;;;;;;5039762;28;19995;-85
2021/06/04 01:52:36;;;;;;;;;;;18.60;99.90;;;;;;5033862;28;19905;-86
2021/06/04 01:55:07;;;;;;;;;;;18.50;99.90;;;;;;5035634;28;19912;-85
2021/06/04 01:57:36;;;;;;;;;;;18.50;99.90;;;;;;5048609;28;19905;-85
2021/06/04 02:00:06;;;;;;;;;;;18.50;99.90;;;;;;5040646;28;19920;-86
2021/06/04 02:02:34;;;;;;;;;;;18.50;99.90;;;;;;5037310;28;19944;-86
2021/06/04 02:04:59;;;;;;;;;;;18.40;99.90;;;;;;5035249;28;19905;-85
2021/06/04 02:07:30;;;;;;;;;;;18.40;99.90;;;;;;5036313;28;19917;-86
2021/06/04 02:09:56;;;;;;;;;;;18.40;99.90;;;;;;5063951;28;20356;-85
2021/06/04 02:12:23;;;;;;;;;;;18.40;99.90;;;;;;5036949;28;20332;-86
2021/06/04 02:14:51;;;;;;;;;;;18.30;99.90;;;;;;5037057;28;19948;-85
2021/06/04 02:17:16;;;;;;;;;;;18.30;99.90;;;;;;5037400;28;19912;-85
2021/06/04 02:20:00;;;;;;;;;;;18.40;99.90;;;;;;5050163;28;19905;-85
2021/06/04 02:22:29;;;;;;;;;;;18.30;99.90;;;;;;5049090;28;19940;-86
2021/06/04 02:24:57;;;;;;;;;;;18.30;99.90;;;;;;5049615;28;20253;-85
2021/06/04 02:27:29;;;;;;;;;;;18.20;99.90;;;;;;5036970;28;19909;-86
2021/06/04 02:29:59;;;;;;;;;;;18.10;99.90;;;;;;5035289;28;19909;-86
2021/06/04 02:32:40;;;;;;;;;;;18.10;99.90;;;;;;5033920;28;19905;-85
2021/06/04 02:35:06;;;;;;;;;;;18.10;99.90;;;;;;5034258;28;19917;-86
2021/06/04 02:37:36;;;;;;;;;;;18.00;99.90;;;;;;5039105;28;19962;-85
2021/06/04 02:40:08;;;;;;;;;;;18.00;99.90;;;;;;5036210;28;19905;-85
2021/06/04 02:42:35;;;;;;;;;;;18.00;99.90;;;;;;5037450;28;19917;-85
2021/06/04 02:45:21;;;;;;;;;;;18.00;99.90;;;;;;5035207;28;19905;-86
2021/06/04 02:47:52;;;;;;;;;;;18.00;99.90;;;;;;5034936;28;20372;-84
2021/06/04 02:50:20;;;;;;;;;;;18.00;99.90;;;;;;5033116;28;20367;-85
2021/06/04 02:52:46;;;;;;;;;;;17.90;99.90;;;;;;5051851;28;19959;-85
2021/06/04 02:55:14;;;;;;;;;;;17.90;99.90;;;;;;5046459;28;19912;-85
2021/06/04 02:57:39;;;;;;;;;;;17.90;99.90;;;;;;5036548;28;19958;-85
2021/06/04 03:00:28;;;;;;;;;;;17.80;99.90;;;;;;5038810;28;19905;-85
2021/06/04 03:02:54;;;;;;;;;;;17.80;99.90;;;;;;5035426;28;19916;-85
2021/06/04 03:05:22;;;;;;;;;;;17.70;99.90;;;;;;5033162;28;19905;-85
2021/06/04 03:07:48;;;;;;;;;;;17.60;99.90;;;;;;5032572;28;19939;-85
2021/06/04 03:10:19;;;;;;;;;;;17.50;99.90;;;;;;5032353;28;19905;-85
2021/06/04 03:12:45;;;;;;;;;;;17.40;99.90;;;;;;5035044;28;19955;-85
2021/06/04 03:15:21;;;;;;;;;;;17.40;99.90;;;;;;5036140;28;19908;-85
2021/06/04 03:17:46;;;;;;;;;;;17.40;99.90;;;;;;5035089;28;19913;-85
2021/06/04 03:20:15;;;;;;;;;;;17.30;99.90;;;;;;5035655;28;20391;-85
2021/06/04 03:22:41;;;;;;;;;;;17.30;99.90;;;;;;5032836;28;20323;-85
2021/06/04 03:25:19;;;;;;;;;;;17.40;99.90;;;;;;5034436;28;19919;-85
2021/06/04 03:27:45;;;;;;;;;;;17.40;99.90;;;;;;5033245;28;19959;-85
2021/06/04 03:30:11;;;;;;;;;;;17.40;99.90;;;;;;5033632;28;19948;-85
2021/06/04 03:32:36;;;;;;;;;;;17.40;99.90;;;;;;5035503;28;19928;-85
2021/06/04 03:35:02;;;;;;;;;;;17.40;99.90;;;;;;5048139;28;20727;-85
2021/06/04 03:37:28;;;;;;;;;;;17.40;99.90;;;;;;5050778;28;20010;-85
2021/06/04 03:39:53;;;;;;;;;;;17.30;99.90;;;;;;5035262;28;19983;-85
2021/06/04 03:42:21;;;;;;;;;;;17.30;99.90;;;;;;5034450;28;19983;-85
2021/06/04 03:44:48;;;;;;;;;;;17.20;99.90;;;;;;5038347;28;19996;-84
2021/06/04 03:47:14;;;;;;;;;;;17.20;99.90;;;;;;5033726;28;19995;-85
2021/06/04 03:49:40;;;;;;;;;;;17.20;99.90;;;;;;5032966;28;20388;-85
2021/06/04 03:52:08;;;;;;;;;;;17.20;99.90;;;;;;5048278;28;19944;-85
2021/06/04 03:54:37;;;;;;;;;;;17.10;99.90;;;;;;5035505;28;19905;-85
2021/06/04 03:57:04;;;;;;;;;;;17.10;99.90;;;;;;5033744;28;19951;-85
2021/06/04 03:59:30;;;;;;;;;;;17.10;99.90;;;;;;5034591;28;19905;-85
2021/06/04 04:01:58;;;;;;;;;;;17.10;99.90;;;;;;5034063;28;19978;-85
2021/06/04 04:04:24;;;;;;;;;;;17.10;99.90;;;;;;5036976;28;20000;-85
2021/06/04 04:06:50;;;;;;;;;;;17.10;99.90;;;;;;5040308;28;20007;-84
2021/06/04 04:09:15;;;;;;;;;;;17.10;99.90;;;;;;5035770;28;20250;-85
2021/06/04 04:11:42;;;;;;;;;;;17.10;99.90;;;;;;5040379;28;19905;-85
2021/06/04 04:14:08;;;;;;;;;;;17.10;99.90;;;;;;5038822;28;19913;-85
2021/06/04 04:16:34;;;;;;;;;;;17.10;99.90;;;;;;5045487;28;20142;-85
2021/06/04 04:19:00;;;;;;;;;;;17.10;99.90;;;;;;5047765;28;19968;-85
2021/06/04 04:21:26;;;;;;;;;;;17.10;99.90;;;;;;5038831;28;19971;-85
2021/06/04 04:23:57;;;;;;;;;;;17.10;99.90;;;;;;5047043;28;20392;-85
2021/06/04 04:26:25;;;;;;;;;;;17.10;99.90;;;;;;5041941;28;19909;-85
2021/06/04 04:28:51;;;;;;;;;;;17.10;99.90;;;;;;5040043;28;20353;-85
2021/06/04 04:31:18;;;;;;;;;;;17.00;99.90;;;;;;5038263;28;19992;-85
2021/06/04 04:33:44;;;;;;;;;;;17.00;99.90;;;;;;5039352;28;19905;-85
2021/06/04 04:36:10;;;;;;;;;;;17.00;99.90;;;;;;5039683;28;20399;-85
2021/06/04 04:38:35;;;;;;;;;;;17.00;99.90;;;;;;5039996;28;19905;-85
2021/06/04 04:41:03;;;;;;;;;;;17.00;99.90;;;;;;5041611;28;19905;-85
2021/06/04 04:43:33;;;;;;;;;;;17.00;99.90;;;;;;5042202;28;19971;-84
2021/06/04 04:45:59;;;;;;;;;;;17.00;99.90;;;;;;5035624;28;19912;-84
2021/06/04 04:48:25;;;;;;;;;;;17.00;99.90;;;;;;5031650;28;19912;-85
2021/06/04 04:50:51;;;;;;;;;;;17.00;99.90;;;;;;5047950;28;19911;-85
2021/06/04 04:53:17;;;;;;;;;;;17.10;99.90;;;;;;5051640;28;19983;-85
2021/06/04 04:55:42;;;;;;;;;;;17.10;99.90;;;;;;5051714;28;19905;-84
2021/06/04 04:58:09;;;;;;;;;;;17.20;99.90;;;;;;5051614;28;19912;-85
2021/06/04 05:00:35;;;;;;;;;;;17.20;99.90;;;;;;5052812;28;19909;-85
2021/06/04 05:03:02;;;;;;;;;;;17.10;99.90;;;;;;5044012;28;20011;-84
2021/06/04 05:05:29;;;;;;;;;;;17.10;99.90;;;;;;5030700;28;19911;-84
2021/06/04 05:07:54;;;;;;;;;;;17.20;99.90;;;;;;5035183;28;19995;-84
2021/06/04 05:10:20;;;;;;;;;;;17.20;99.90;;;;;;5029840;28;20368;-85
2021/06/04 05:12:45;;;;;;;;;;;17.20;99.90;;;;;;5048899;28;19909;-84
2021/06/04 05:15:13;;;;;;;;;;;17.30;99.90;;;;;;5051066;28;19913;-83
2021/06/04 05:17:40;;;;;;;;;;;17.40;99.90;;;;;;5052089;28;19909;-84
2021/06/04 05:20:06;;;;;;;;;;;17.40;99.90;;;;;;5050969;28;19913;-83
2021/06/04 05:22:31;;;;;;;;;;;17.50;99.90;;;;;;5055143;28;19915;-84
2021/06/04 05:24:57;;;;;;;;;;;17.40;99.90;;;;;;5054596;28;19905;-84
2021/06/04 05:27:22;;;;;;;;;;;17.40;99.90;;;;;;5054747;28;19999;-84
2021/06/04 05:29:48;;;;;;;;;;;17.40;99.90;;;;;;5054782;28;20011;-83
2021/06/04 05:32:14;;;;;;;;;;;17.50;99.90;;;;;;5054765;28;20280;-84
2021/06/04 05:34:40;;;;;;;;;;;17.50;99.90;;;;;;5054505;28;20391;-85
2021/06/04 05:37:05;;;;;;;;;;;17.50;99.90;;;;;;5055918;28;19911;-84
2021/06/04 05:39:31;;;;;;;;;;;17.60;99.90;;;;;;5054624;28;19904;-85
2021/06/04 05:42:02;;;;;;;;;;;17.60;99.90;;;;;;5054582;28;19947;-84
2021/06/04 05:44:29;;;;;;;;;;;17.70;99.90;;;;;;5054661;28;19905;-84
2021/06/04 05:46:57;;;;;;;;;;;17.80;99.90;;;;;;5054330;28;20260;-85
2021/06/04 05:49:22;;;;;;;;;;;17.90;99.90;;;;;;5054536;28;19905;-85
2021/06/04 05:51:49;;;;;;;;;;;18.00;99.90;;;;;;5053813;28;19974;-85
2021/06/04 05:54:16;;;;;;;;;;;18.20;99.90;;;;;;5053653;28;19983;-85
2021/06/04 05:56:42;;;;;;;;;;;18.40;99.90;;;;;;5053439;28;19905;-85
2021/06/04 05:59:09;;;;;;;;;;;18.50;99.90;;;;;;5054123;28;20268;-86
2021/06/04 06:01:35;;;;;;;;;;;18.60;99.90;;;;;;5054475;28;19911;-85
2021/06/04 06:04:01;;;;;;;;;;;18.80;99.90;;;;;;5055648;28;19904;-85
2021/06/04 06:06:27;;;;;;;;;;;18.90;99.90;;;;;;5053961;28;20372;-85
2021/06/04 06:08:52;;;;;;;;;;;19.10;99.90;;;;;;5055347;28;20383;-86
2021/06/04 06:11:22;;;;;;;;;;;19.20;99.90;;;;;;5055326;28;20410;-88
2021/06/04 06:13:48;;;;;;;;;;;19.30;99.90;;;;;;5055586;28;20001;-87
2021/06/04 06:16:13;;;;;;;;;;;19.40;99.90;;;;;;5053809;28;19911;-87
2021/06/04 06:18:39;;;;;;;;;;;19.50;99.90;;;;;;5053993;28;19995;-86
2021/06/04 06:21:05;;;;;;;;;;;19.60;99.90;;;;;;5054848;28;19985;-87
2021/06/04 06:23:32;;;;;;;;;;;19.70;99.90;;;;;;5054200;28;20364;-87
2021/06/04 06:26:01;;;;;;;;;;;19.70;99.90;;;;;;5056105;28;19913;-87
2021/06/04 06:28:28;;;;;;;;;;;19.90;99.90;;;;;;5053348;28;19909;-85
2021/06/04 06:30:53;;;;;;;;;;;20.00;99.90;;;;;;5053335;28;20311;-85
2021/06/04 06:33:19;;;;;;;;;;;20.10;99.90;;;;;;5054932;28;20426;-84
2021/06/04 06:35:50;;;;;;;;;;;20.10;99.90;;;;;;5053279;28;20018;-86
2021/06/04 06:38:16;;;;;;;;;;;20.20;99.90;;;;;;5052367;28;20500;-85
2021/06/04 06:40:42;;;;;;;;;;;20.30;99.90;;;;;;5054406;28;19911;-86
2021/06/04 06:43:08;;;;;;;;;;;20.40;99.90;;;;;;5052665;28;19996;-86
2021/06/04 06:45:34;;;;;;;;;;;20.50;99.90;;;;;;5054064;28;20368;-87
2021/06/04 06:48:00;;;;;;;;;;;20.50;99.90;;;;;;5053576;28;19908;-86
2021/06/04 06:50:28;;;;;;;;;;;20.60;99.90;;;;;;5054014;28;19931;-87
2021/06/04 06:52:54;;;;;;;;;;;20.60;99.90;;;;;;5051130;28;19926;-87
2021/06/04 06:55:19;;;;;;;;;;;20.70;99.90;;;;;;5052821;28;19909;-86
2021/06/04 06:57:45;;;;;;;;;;;20.80;99.90;;;;;;5052692;28;19912;-87
2021/06/04 07:00:20;;;;;;;;;;;20.70;99.90;;;;;;5052612;28;20284;-87
2021/06/04 07:02:46;;;;;;;;;;;20.80;99.90;;;;;;5052446;28;20424;-87
2021/06/04 07:05:12;;;;;;;;;;;20.80;99.90;;;;;;5052537;28;19940;-87
2021/06/04 07:07:39;;;;;;;;;;;20.90;99.90;;;;;;5052403;28;19912;-87
2021/06/04 07:10:09;;;;;;;;;;;21.00;99.90;;;;;;5052634;28;19909;-87
2021/06/04 07:12:35;;;;;;;;;;;21.10;99.90;;;;;;5051206;28;19931;-87
2021/06/04 07:15:00;;;;;;;;;;;21.20;99.90;;;;;;5052487;28;20373;-87
2021/06/04 07:17:28;;;;;;;;;;;21.30;99.90;;;;;;5052303;28;19943;-87
2021/06/04 07:19:54;;;;;;;;;;;21.40;99.90;;;;;;5050914;28;20107;-87
2021/06/04 07:22:19;;;;;;;;;;;21.50;99.90;;;;;;5053640;28;19920;-87
2021/06/04 07:24:45;;;;;;;;;;;21.50;99.90;;;;;;5052517;28;20414;-87
2021/06/04 07:27:10;;;;;;;;;;;21.60;99.90;;;;;;5052199;28;19916;-87
2021/06/04 07:29:36;;;;;;;;;;;21.70;99.90;;;;;;5053770;28;19958;-87
2021/06/04 07:32:02;;;;;;;;;;;21.80;99.90;;;;;;5053703;28;20368;-87
2021/06/04 07:34:28;;;;;;;;;;;21.90;99.90;;;;;;5051296;28;19920;-86
2021/06/04 07:36:55;;;;;;;;;;;22.10;99.90;;;;;;5049590;28;19905;-87
2021/06/04 07:39:24;;;;;;;;;;;22.10;99.20;;;;;;5053417;28;20379;-87
2021/06/04 07:41:49;;;;;;;;;;;22.20;98.80;;;;;;5052590;28;19905;-87
2021/06/04 07:44:15;;;;;;;;;;;22.30;98.60;;;;;;5052100;28;19911;-87
2021/06/04 07:46:41;;;;;;;;;;;22.40;98.00;;;;;;5051841;28;20322;-87
2021/06/04 07:49:07;;;;;;;;;;;22.50;97.70;;;;;;5052021;28;19959;-87
2021/06/04 07:51:37;;;;;;;;;;;22.60;97.20;;;;;;5051933;28;19905;-87
2021/06/04 07:54:03;;;;;;;;;;;22.70;96.10;;;;;;5053276;28;19944;-87
2021/06/04 07:56:29;;;;;;;;;;;22.80;96.00;;;;;;5053097;28;19991;-86
2021/06/04 07:58:54;;;;;;;;;;;22.90;95.00;;;;;;5053260;28;19939;-88
2021/06/04 08:01:20;;;;;;;;;;;23.00;94.10;;;;;;5053227;28;19911;-87
2021/06/04 08:03:46;;;;;;;;;;;23.10;94.10;;;;;;5051936;28;19944;-87
2021/06/04 08:06:13;;;;;;;;;;;23.10;93.50;;;;;;5051666;28;19948;-87
2021/06/04 08:08:39;;;;;;;;;;;23.10;93.30;;;;;;5051678;28;20361;-86
2021/06/04 08:11:06;;;;;;;;;;;23.20;93.30;;;;;;5053437;28;19909;-86
2021/06/04 08:13:31;;;;;;;;;;;23.20;93.10;;;;;;5052224;28;19905;-86
2021/06/04 08:16:00;;;;;;;;;;;23.20;92.80;;;;;;5053308;28;19911;-87
2021/06/04 08:18:28;;;;;;;;;;;23.30;92.80;;;;;;5051977;28;19912;-86
2021/06/04 08:20:53;;;;;;;;;;;23.40;92.80;;;;;;5051936;28;19905;-86
2021/06/04 08:23:24;;;;;;;;;;;23.40;92.80;;;;;;5051948;28;20403;-86
2021/06/04 08:25:51;;;;;;;;;;;23.50;92.90;;;;;;5051342;28;19904;-87
2021/06/04 08:28:17;;;;;;;;;;;23.50;92.90;;;;;;5053198;28;19999;-87
2021/06/04 08:30:43;;;;;;;;;;;23.60;92.60;;;;;;5051833;28;19940;-87
2021/06/04 08:33:09;;;;;;;;;;;23.50;91.70;;;;;;5052033;28;19916;-87
2021/06/04 08:35:35;;;;;;;;;;;23.50;91.80;;;;;;5052779;28;19920;-86
2021/06/04 08:38:01;;;;;;;;;;;23.50;91.70;;;;;;5051925;28;19905;-86
2021/06/04 08:40:31;;;;;;;;;;;23.60;91.80;;;;;;5051596;28;20357;-86
2021/06/04 08:43:07;;;;;;;;;;;23.70;91.80;;;;;;5053191;28;19911;-85
2021/06/04 08:45:39;;;;;;;;;;;23.80;91.70;;;;;;5052092;28;19905;-86
2021/06/04 08:48:19;;;;;;;;;;;24.00;91.70;;;;;;5056707;28;19912;-87
2021/06/04 08:50:52;;;;;;;;;;;24.20;91.20;;;;;;5055576;28;19915;-86
2021/06/04 08:53:26;;;;;;;;;;;24.40;91.30;;;;;;5055620;28;19927;-87
2021/06/04 08:56:03;;;;;;;;;;;24.50;91.10;;;;;;5056649;28;19905;-87
2021/06/04 08:58:31;;;;;;;;;;;24.50;91.10;;;;;;5056671;28;20384;-87
2021/06/04 09:00:58;;;;;;;;;;;24.50;91.00;;;;;;5056260;28;19908;-86
2021/06/04 09:03:25;;;;;;;;;;;24.40;90.90;;;;;;5054953;28;19904;-87
2021/06/04 09:05:57;;;;;;;;;;;24.40;90.10;;;;;;5056571;28;19912;-87
2021/06/04 09:08:29;;;;;;;;;;;24.30;90.00;;;;;;5055188;28;20269;-87
2021/06/04 09:10:57;;;;;;;;;;;24.50;90.20;;;;;;5056297;28;20391;-86
2021/06/04 09:13:29;;;;;;;;;;;24.40;90.20;;;;;;5055271;28;19904;-86
2021/06/04 09:15:59;;;;;;;;;;;24.50;90.10;;;;;;5055186;28;19923;-86
2021/06/04 09:18:33;;;;;;;;;;;24.50;89.80;;;;;;5055005;28;19914;-87
2021/06/04 09:21:06;;;;;;;;;;;24.60;88.70;;;;;;5055045;28;19908;-86
2021/06/04 09:23:39;;;;;;;;;;;24.70;88.90;;;;;;5055022;28;19944;-86
2021/06/04 09:26:06;;;;;;;;;;;24.80;86.30;;;;;;5054120;28;19909;-86
2021/06/04 09:28:49;;;;;;;;;;;25.00;86.00;;;;;;5054881;28;20000;-87
2021/06/04 09:31:42;;;;;;;;;;;25.10;85.50;;;;;;5054909;28;19908;-86
2021/06/04 09:34:13;;;;;;;;;;;25.30;85.50;;;;;;5046740;28;19905;-86
2021/06/04 09:36:45;;;;;;;;;;;25.40;84.80;;;;;;5054670;28;20006;-87
2021/06/04 09:39:33;;;;;;;;;;;25.50;85.00;;;;;;5056001;28;19946;-87
2021/06/04 09:42:18;;;;;;;;;;;25.80;85.00;;;;;;5055369;28;20365;-87
2021/06/04 09:44:51;;;;;;;;;;;25.90;84.60;;;;;;5055884;28;19905;-87
2021/06/04 09:47:43;;;;;;;;;;;26.10;84.70;;;;;;5054342;28;19955;-87
2021/06/04 09:50:15;;;;;;;;;;;26.20;83.90;;;;;;5055443;28;19904;-87
2021/06/04 09:52:42;;;;;;;;;;;26.30;83.10;;;;;;5054801;28;19954;-87
2021/06/04 09:55:16;;;;;;;;;;;26.20;79.80;;;;;;5055653;28;19905;-87
2021/06/04 09:57:57;;;;;;;;;;;26.20;79.10;;;;;;5054750;28;19905;-87
2021/06/04 10:00:42;;;;;;;;;;;26.50;80.00;;;;;;5055143;28;20369;-86
2021/06/04 10:03:08;;;;;;;;;;;27.00;81.90;;;;;;5051774;28;19904;-87
2021/06/04 10:05:34;;;;;;;;;;;27.90;79.70;;;;;;5055060;28;20272;-87
2021/06/04 10:08:23;;;;;;;;;;;29.40;75.30;;;;;;5053576;28;19995;-86
2021/06/04 10:11:01;;;;;;;;;;;30.40;71.30;;;;;;5051875;28;19912;-86
2021/06/04 10:13:33;;;;;;;;;;;31.40;68.80;;;;;;5053081;28;19908;-87
2021/06/04 10:16:02;;;;;;;;;;;32.30;66.50;;;;;;5054676;28;19905;-87
2021/06/04 10:18:36;;;;;;;;;;;32.70;64.60;;;;;;5053536;28;19905;-86
2021/06/04 10:21:28;;;;;;;;;;;33.00;59.50;;;;;;5052102;28;19911;-87
2021/06/04 10:23:55;;;;;;;;;;;33.10;57.90;;;;;;5052458;28;19904;-87
2021/06/04 10:26:25;;;;;;;;;;;33.20;58.00;;;;;;5053101;28;19905;-87
2021/06/04 10:28:53;;;;;;;;;;;34.20;58.00;;;;;;5055102;28;20353;-87
2021/06/04 10:31:19;;;;;;;;;;;35.30;56.70;;;;;;5054887;28;19928;-88
2021/06/04 10:33:44;;;;;;;;;;;35.70;55.30;;;;;;5053128;28;20300;-88
2021/06/04 10:36:13;;;;;;;;;;;35.70;53.90;;;;;;5053563;28;20387;-88
2021/06/04 10:38:42;;;;;;;;;;;35.30;53.00;;;;;;5054848;28;19904;-87
2021/06/04 10:41:19;;;;;;;;;;;34.70;53.60;;;;;;5053412;28;20318;-87
2021/06/04 10:43:45;;;;;;;;;;;34.20;53.50;;;;;;5053507;28;19959;-87
2021/06/04 10:46:10;;;;;;;;;;;33.90;54.50;;;;;;5054497;28;19911;-87
2021/06/04 10:48:41;;;;;;;;;;;34.30;54.10;;;;;;5053510;28;19911;-88
2021/06/04 10:51:10;;;;;;;;;;;35.40;53.80;;;;;;5054523;28;19911;-88
2021/06/04 10:53:41;;;;;;;;;;;36.80;51.70;;;;;;5053364;28;19913;-88
2021/06/04 10:56:19;;;;;;;;;;;38.00;50.00;;;;;;5050237;28;19904;-89
2021/06/04 10:59:00;;;;;;;;;;;38.20;48.10;;;;;;5054073;28;19999;-89
2021/06/04 11:01:34;;;;;;;;;;;39.30;46.90;;;;;;5050121;28;19908;-89
2021/06/04 11:04:07;;;;;;;;;;;40.10;45.00;;;;;;5052729;28;19904;-88
2021/06/04 11:06:55;;;;;;;;;;;40.90;42.40;;;;;;5049806;28;20027;-88
2021/06/04 11:09:30;;;;;;;;;;;41.80;42.10;;;;;;5053060;28;20352;-88
2021/06/04 11:11:55;;;;;;;;;;;42.50;40.50;;;;;;5049998;28;19987;-88
2021/06/04 11:14:40;;;;;;;;;;;43.10;39.60;;;;;;5052579;28;20027;-89
2021/06/04 11:17:22;;;;;;;;;;;43.70;39.40;;;;;;5052407;28;20311;-88
2021/06/04 11:19:49;;;;;;;;;;;44.40;36.70;;;;;;5050642;28;20379;-88
2021/06/04 11:22:19;;;;;;;;;;;45.00;35.80;;;;;;5051849;28;19908;-89
2021/06/04 11:24:50;;;;;;;;;;;45.10;36.40;;;;;;5053545;28;19905;-88
2021/06/04 11:27:26;;;;;;;;;;;45.10;35.50;;;;;;5053389;28;20410;-89
2021/06/04 11:29:52;;;;;;;;;;;45.10;33.80;;;;;;5050519;28;19905;-87
2021/06/04 11:32:20;;;;;;;;;;;45.70;33.70;;;;;;5052103;28;19932;-87
2021/06/04 11:34:52;;;;;;;;;;;46.10;33.30;;;;;;5052094;28;19936;-87
2021/06/04 11:37:20;;;;;;;;;;;45.90;32.00;;;;;;5053581;28;19904;-87
2021/06/04 11:39:48;;;;;;;;;;;45.80;31.30;;;;;;5043857;28;19916;-87
2021/06/04 11:42:16;;;;;;;;;;;45.90;32.30;;;;;;5052149;28;19996;-86
2021/06/04 11:44:44;;;;;;;;;;;46.10;32.90;;;;;;5052103;28;19954;-87
2021/06/04 11:47:13;;;;;;;;;;;46.40;33.50;;;;;;5049110;28;19920;-87
2021/06/04 11:50:06;;;;;;;;;;;46.60;31.90;;;;;;5052180;28;19919;-86
2021/06/04 11:52:32;;;;;;;;;;;46.40;32.10;;;;;;5049559;28;19954;-86
2021/06/04 11:55:12;;;;;;;;;;;45.50;32.20;;;;;;5052795;28;19988;-87
2021/06/04 11:57:49;;;;;;;;;;;45.60;32.70;;;;;;5051039;28;20364;-86
2021/06/04 12:00:34;;;;;;;;;;;45.10;32.70;;;;;;5051519;28;20042;-88
2021/06/04 12:03:05;;;;;;;;;;;45.30;31.90;;;;;;5053514;28;19911;-88
2021/06/04 12:05:31;;;;;;;;;;;45.70;31.30;;;;;;5049815;28;20014;-83
2021/06/04 12:08:11;;;;;;;;;;;45.20;32.10;;;;;;5053304;28;20016;-88
2021/06/04 12:10:46;;;;;;;;;;;45.10;32.40;;;;;;5051676;28;19954;-87
2021/06/04 12:13:30;;;;;;;;;;;45.40;32.50;;;;;;5047605;28;19909;-87
2021/06/04 12:16:15;;;;;;;;;;;45.30;32.70;;;;;;5052723;28;19904;-90
2021/06/04 12:18:49;;;;;;;;;;;45.40;31.80;;;;;;5052436;28;19966;-88
2021/06/04 12:21:33;;;;;;;;;;;45.40;33.30;;;;;;5052016;28;19913;-89
2021/06/04 12:23:59;;;;;;;;;;;45.40;33.30;;;;;;5054985;28;19905;-88
2021/06/04 12:26:37;;;;;;;;;;;45.30;33.50;;;;;;5055612;28;20315;-88
2021/06/04 12:29:20;;;;;;;;;;;45.20;34.00;;;;;;5054058;28;20026;-89
2021/06/04 12:31:58;;;;;;;;;;;45.20;34.10;;;;;;5054731;28;20362;-88
2021/06/04 12:34:30;;;;;;;;;;;44.70;34.00;;;;;;5055598;28;20376;-88
2021/06/04 12:37:02;;;;;;;;;;;44.40;34.00;;;;;;5053906;28;19917;-87
2021/06/04 12:39:36;;;;;;;;;;;44.20;33.00;;;;;;5055998;28;19911;-88
2021/06/04 12:42:04;;;;;;;;;;;44.30;32.40;;;;;;5056253;28;20408;-88
2021/06/04 12:44:30;;;;;;;;;;;44.10;33.30;;;;;;5056047;28;19908;-88
2021/06/04 12:46:56;;;;;;;;;;;44.40;32.80;;;;;;5055911;28;19919;-87
2021/06/04 12:49:22;;;;;;;;;;;44.40;33.10;;;;;;5056687;28;19915;-87
2021/06/04 12:51:48;;;;;;;;;;;44.50;32.40;;;;;;5054982;28;20002;-87
2021/06/04 12:54:28;;;;;;;;;;;44.40;32.00;;;;;;5056696;28;20352;-86
2021/06/04 12:56:59;;;;;;;;;;;44.10;32.20;;;;;;5055633;28;20430;-86
2021/06/04 12:59:25;;;;;;;;;;;43.90;32.70;;;;;;5055068;28;19916;-86
2021/06/04 13:01:56;;;;;;;;;;;43.80;33.00;;;;;;5053623;28;19912;-86
2021/06/04 13:04:24;;;;;;;;;;;43.70;32.60;;;;;;5047394;28;19905;-86
2021/06/04 13:06:52;;;;;;;;;;;43.40;33.40;;;;;;5047537;28;19912;-84
2021/06/04 13:09:31;;;;;;;;;;;43.30;33.50;;;;;;5055575;28;19911;-86
2021/06/04 13:11:57;;;;;;;;;;;43.00;34.60;;;;;;5055800;28;19908;-85
2021/06/04 13:14:22;;;;;;;;;;;42.60;34.00;;;;;;5054528;28;19912;-85
2021/06/04 13:16:48;;;;;;;;;;;42.50;33.70;;;;;;5054734;28;19912;-85
2021/06/04 13:19:17;;;;;;;;;;;42.30;34.50;;;;;;5054922;28;20379;-85
2021/06/04 13:21:49;;;;;;;;;;;42.30;33.90;;;;;;5054574;28;19954;-84
2021/06/04 13:24:23;;;;;;;;;;;42.40;34.60;;;;;;5054490;28;19912;-83
2021/06/04 13:26:50;;;;;;;;;;;42.20;33.60;;;;;;5053704;28;19905;-84
2021/06/04 13:29:34;;;;;;;;;;;42.20;34.60;;;;;;5055798;28;19909;-85
2021/06/04 13:32:22;;;;;;;;;;;42.30;34.70;;;;;;5054603;28;19909;-84
2021/06/04 13:35:01;;;;;;;;;;;42.30;34.50;;;;;;5061733;28;19913;-85
2021/06/04 13:37:33;;;;;;;;;;;42.10;34.60;;;;;;5055494;28;20407;-85
2021/06/04 13:39:58;;;;;;;;;;;41.80;34.60;;;;;;5053808;28;20006;-84
2021/06/04 13:42:34;;;;;;;;;;;41.50;35.00;;;;;;5054625;28;20368;-84
2021/06/04 13:45:00;;;;;;;;;;;41.10;34.80;;;;;;5056176;28;19905;-84
2021/06/04 13:47:32;;;;;;;;;;;40.40;36.20;;;;;;5054458;28;20410;-84
2021/06/04 13:50:12;;;;;;;;;;;39.50;36.40;;;;;;5055402;28;19908;-84
2021/06/04 13:52:37;;;;;;;;;;;38.90;37.30;;;;;;5053241;28;19905;-84
2021/06/04 13:55:03;;;;;;;;;;;38.20;38.20;;;;;;5054307;28;19912;-84
2021/06/04 13:57:30;;;;;;;;;;;37.60;39.10;;;;;;5054258;28;19908;-84
2021/06/04 14:00:13;;;;;;;;;;;37.10;40.30;;;;;;5055433;28;20379;-84
2021/06/04 14:02:40;;;;;;;;;;;36.20;41.30;;;;;;5054214;28;19995;-83
2021/06/04 14:05:19;;;;;;;;;;;35.40;42.40;;;;;;5054011;28;19952;-84
2021/06/04 14:07:45;;;;;;;;;;;35.00;42.60;;;;;;5055390;28;20373;-84
2021/06/04 14:10:31;;;;;;;;;;;34.80;42.50;;;;;;5055293;28;19909;-84
2021/06/04 14:13:08;;;;;;;;;;;34.90;42.70;;;;;;5055285;28;20423;-84
2021/06/04 14:15:40;;;;;;;;;;;34.80;43.00;;;;;;5055016;28;19905;-84
2021/06/04 14:18:25;;;;;;;;;;;34.40;43.70;;;;;;5050499;28;20258;-84
2021/06/04 14:20:50;;;;;;;;;;;34.20;44.00;;;;;;5035159;28;20337;-75
2021/06/04 14:23:30;;;;;;;;;;;34.30;44.40;;;;;;5033872;28;19996;-76
2021/06/04 14:26:14;;;;;;;;;;;34.00;45.00;;;;;;5033892;28;19963;-84
2021/06/04 14:28:39;;;;;;;;;;;33.70;45.50;;;;;;5034078;28;19938;-84
2021/06/04 14:31:05;;;;;;;;;;;33.70;46.00;;;;;;5034930;28;19920;-84